sensor_id;sensor_type;location;lat;lon;timestamp;P1;durP1;ratioP1;P2;durP2;ratioP2
68284;SDS011;55114;52.052;5.238;2023-04-29T00:01:37;30.02;;;12.25;;
68284;SDS011;55114;52.052;5.238;2023-04-29T00:04:05;28.10;;;12.20;;
68284;SDS011;55114;52.052;5.238;2023-04-29T00:06:33;35.83;;;13.27;;
68284;SDS011;55114;52.052;5.238;2023-04-29T00:09:00;32.70;;;12.85;;
68284;SDS011;55114;52.052;5.238;2023-04-29T00:11:29;37.92;;;14.98;;
68284;SDS011;55114;52.052;5.238;2023-04-29T00:13:56;42.13;;;15.07;;
68284;SDS011;55114;52.052;5.238;2023-04-29T00:16:24;34.60;;;14.15;;
68284;SDS011;55114;52.052;5.238;2023-04-29T00:18:51;37.13;;;14.03;;
68284;SDS011;55114;52.052;5.238;2023-04-29T00:21:18;37.75;;;14.15;;
68284;SDS011;55114;52.052;5.238;2023-04-29T00:23:46;38.85;;;13.85;;
68284;SDS011;55114;52.052;5.238;2023-04-29T00:26:13;39.58;;;15.32;;
68284;SDS011;55114;52.052;5.238;2023-04-29T00:28:42;34.47;;;13.73;;
68284;SDS011;55114;52.052;5.238;2023-04-29T00:31:09;35.40;;;13.77;;
68284;SDS011;55114;52.052;5.238;2023-04-29T00:33:36;37.60;;;13.70;;
68284;SDS011;55114;52.052;5.238;2023-04-29T00:36:06;39.47;;;15.20;;
68284;SDS011;55114;52.052;5.238;2023-04-29T00:38:33;41.33;;;14.75;;
68284;SDS011;55114;52.052;5.238;2023-04-29T00:41:01;35.05;;;14.35;;
68284;SDS011;55114;52.052;5.238;2023-04-29T00:43:28;39.60;;;14.68;;
68284;SDS011;55114;52.052;5.238;2023-04-29T00:45:55;41.17;;;14.93;;
68284;SDS011;55114;52.052;5.238;2023-04-29T00:48:23;42.45;;;15.18;;
68284;SDS011;55114;52.052;5.238;2023-04-29T00:50:50;34.75;;;14.57;;
68284;SDS011;55114;52.052;5.238;2023-04-29T00:53:18;41.38;;;14.70;;
68284;SDS011;55114;52.052;5.238;2023-04-29T00:55:46;35.80;;;13.77;;
68284;SDS011;55114;52.052;5.238;2023-04-29T00:58:14;35.83;;;14.75;;
68284;SDS011;55114;52.052;5.238;2023-04-29T01:00:42;36.15;;;14.38;;
68284;SDS011;55114;52.052;5.238;2023-04-29T01:03:12;32.97;;;14.10;;
68284;SDS011;55114;52.052;5.238;2023-04-29T01:05:40;35.38;;;14.48;;
68284;SDS011;55114;52.052;5.238;2023-04-29T01:08:36;32.28;;;13.70;;
68284;SDS011;55114;52.052;5.238;2023-04-29T01:11:07;31.95;;;12.45;;
68284;SDS011;55114;52.052;5.238;2023-04-29T01:13:54;29.73;;;12.15;;
68284;SDS011;55114;52.052;5.238;2023-04-29T01:18:57;27.25;;;11.27;;
68284;SDS011;55114;52.052;5.238;2023-04-29T01:21:25;25.48;;;10.85;;
68284;SDS011;55114;52.052;5.238;2023-04-29T01:23:53;26.98;;;11.20;;
68284;SDS011;55114;52.052;5.238;2023-04-29T01:26:23;26.00;;;11.05;;
68284;SDS011;55114;52.052;5.238;2023-04-29T01:31:27;23.80;;;11.07;;
68284;SDS011;55114;52.052;5.238;2023-04-29T01:36:33;26.15;;;11.13;;
68284;SDS011;55114;52.052;5.238;2023-04-29T01:44:31;24.45;;;10.25;;
68284;SDS011;55114;52.052;5.238;2023-04-29T01:46:58;27.17;;;10.88;;
68284;SDS011;55114;52.052;5.238;2023-04-29T01:49:27;27.40;;;10.85;;
68284;SDS011;55114;52.052;5.238;2023-04-29T01:51:55;27.75;;;11.18;;
68284;SDS011;55114;52.052;5.238;2023-04-29T01:54:22;26.17;;;10.43;;
68284;SDS011;55114;52.052;5.238;2023-04-29T01:56:50;24.40;;;10.90;;
68284;SDS011;55114;52.052;5.238;2023-04-29T01:59:17;27.67;;;10.93;;
68284;SDS011;55114;52.052;5.238;2023-04-29T02:01:44;25.17;;;10.13;;
68284;SDS011;55114;52.052;5.238;2023-04-29T02:04:12;28.15;;;11.60;;
68284;SDS011;55114;52.052;5.238;2023-04-29T02:06:39;21.08;;;10.20;;
68284;SDS011;55114;52.052;5.238;2023-04-29T02:09:06;25.55;;;10.68;;
68284;SDS011;55114;52.052;5.238;2023-04-29T02:11:34;25.58;;;11.18;;
68284;SDS011;55114;52.052;5.238;2023-04-29T02:14:01;25.70;;;10.63;;
68284;SDS011;55114;52.052;5.238;2023-04-29T02:16:28;24.08;;;10.55;;
68284;SDS011;55114;52.052;5.238;2023-04-29T02:18:56;22.63;;;10.05;;
68284;SDS011;55114;52.052;5.238;2023-04-29T02:21:23;22.42;;;10.30;;
68284;SDS011;55114;52.052;5.238;2023-04-29T02:23:52;27.30;;;10.93;;
68284;SDS011;55114;52.052;5.238;2023-04-29T02:26:19;25.00;;;10.50;;
68284;SDS011;55114;52.052;5.238;2023-04-29T02:28:47;24.58;;;10.98;;
68284;SDS011;55114;52.052;5.238;2023-04-29T02:31:14;26.02;;;10.70;;
68284;SDS011;55114;52.052;5.238;2023-04-29T02:33:42;24.02;;;10.25;;
68284;SDS011;55114;52.052;5.238;2023-04-29T02:36:09;23.02;;;9.82;;
68284;SDS011;55114;52.052;5.238;2023-04-29T02:38:36;26.10;;;10.10;;
68284;SDS011;55114;52.052;5.238;2023-04-29T02:41:05;28.00;;;10.55;;
68284;SDS011;55114;52.052;5.238;2023-04-29T02:43:32;24.02;;;10.27;;
68284;SDS011;55114;52.052;5.238;2023-04-29T02:45:59;22.80;;;9.95;;
68284;SDS011;55114;52.052;5.238;2023-04-29T02:48:26;25.27;;;10.60;;
68284;SDS011;55114;52.052;5.238;2023-04-29T02:50:53;22.42;;;9.73;;
68284;SDS011;55114;52.052;5.238;2023-04-29T02:53:21;25.83;;;10.35;;
68284;SDS011;55114;52.052;5.238;2023-04-29T02:55:48;22.17;;;9.75;;
68284;SDS011;55114;52.052;5.238;2023-04-29T02:58:16;24.52;;;10.73;;
68284;SDS011;55114;52.052;5.238;2023-04-29T03:00:43;26.23;;;10.17;;
68284;SDS011;55114;52.052;5.238;2023-04-29T03:03:10;24.58;;;9.88;;
68284;SDS011;55114;52.052;5.238;2023-04-29T03:05:38;22.05;;;10.27;;
68284;SDS011;55114;52.052;5.238;2023-04-29T03:08:06;20.75;;;9.25;;
68284;SDS011;55114;52.052;5.238;2023-04-29T03:10:36;23.25;;;9.30;;
68284;SDS011;55114;52.052;5.238;2023-04-29T03:13:06;22.10;;;9.65;;
68284;SDS011;55114;52.052;5.238;2023-04-29T03:15:34;21.67;;;9.75;;
68284;SDS011;55114;52.052;5.238;2023-04-29T03:18:02;22.95;;;9.63;;
68284;SDS011;55114;52.052;5.238;2023-04-29T03:20:30;23.52;;;10.20;;
68284;SDS011;55114;52.052;5.238;2023-04-29T03:22:58;21.00;;;9.50;;
68284;SDS011;55114;52.052;5.238;2023-04-29T03:25:26;22.60;;;9.70;;
68284;SDS011;55114;52.052;5.238;2023-04-29T03:27:54;25.65;;;9.82;;
68284;SDS011;55114;52.052;5.238;2023-04-29T03:30:21;21.75;;;10.07;;
68284;SDS011;55114;52.052;5.238;2023-04-29T03:32:48;23.65;;;10.02;;
68284;SDS011;55114;52.052;5.238;2023-04-29T03:35:15;24.15;;;9.90;;
68284;SDS011;55114;52.052;5.238;2023-04-29T03:37:43;25.70;;;10.55;;
68284;SDS011;55114;52.052;5.238;2023-04-29T03:40:10;25.25;;;10.90;;
68284;SDS011;55114;52.052;5.238;2023-04-29T03:42:37;25.08;;;10.45;;
68284;SDS011;55114;52.052;5.238;2023-04-29T03:45:05;27.35;;;11.15;;
68284;SDS011;55114;52.052;5.238;2023-04-29T03:47:33;22.83;;;10.35;;
68284;SDS011;55114;52.052;5.238;2023-04-29T03:50:01;22.23;;;9.95;;
68284;SDS011;55114;52.052;5.238;2023-04-29T03:52:28;26.00;;;10.77;;
68284;SDS011;55114;52.052;5.238;2023-04-29T03:54:56;24.75;;;10.63;;
68284;SDS011;55114;52.052;5.238;2023-04-29T03:57:23;24.55;;;10.68;;
68284;SDS011;55114;52.052;5.238;2023-04-29T03:59:50;23.38;;;10.27;;
68284;SDS011;55114;52.052;5.238;2023-04-29T04:02:18;25.17;;;10.60;;
68284;SDS011;55114;52.052;5.238;2023-04-29T04:04:45;25.23;;;11.20;;
68284;SDS011;55114;52.052;5.238;2023-04-29T04:07:13;27.80;;;10.73;;
68284;SDS011;55114;52.052;5.238;2023-04-29T04:09:41;24.40;;;10.55;;
68284;SDS011;55114;52.052;5.238;2023-04-29T04:12:08;25.77;;;10.70;;
68284;SDS011;55114;52.052;5.238;2023-04-29T04:14:35;25.02;;;10.70;;
68284;SDS011;55114;52.052;5.238;2023-04-29T04:17:03;22.73;;;10.70;;
68284;SDS011;55114;52.052;5.238;2023-04-29T04:19:30;29.83;;;11.63;;
68284;SDS011;55114;52.052;5.238;2023-04-29T04:21:58;25.42;;;10.75;;
68284;SDS011;55114;52.052;5.238;2023-04-29T04:24:25;28.75;;;11.93;;
68284;SDS011;55114;52.052;5.238;2023-04-29T04:26:53;25.63;;;10.77;;
68284;SDS011;55114;52.052;5.238;2023-04-29T04:29:20;26.65;;;10.85;;
68284;SDS011;55114;52.052;5.238;2023-04-29T04:31:47;25.55;;;10.93;;
68284;SDS011;55114;52.052;5.238;2023-04-29T04:34:15;25.10;;;10.98;;
68284;SDS011;55114;52.052;5.238;2023-04-29T04:36:45;26.05;;;11.13;;
68284;SDS011;55114;52.052;5.238;2023-04-29T04:39:13;28.60;;;11.02;;
68284;SDS011;55114;52.052;5.238;2023-04-29T04:41:40;25.58;;;11.40;;
68284;SDS011;55114;52.052;5.238;2023-04-29T04:44:08;27.20;;;10.70;;
68284;SDS011;55114;52.052;5.238;2023-04-29T04:46:36;23.95;;;10.80;;
68284;SDS011;55114;52.052;5.238;2023-04-29T04:49:03;22.40;;;9.75;;
68284;SDS011;55114;52.052;5.238;2023-04-29T04:51:31;24.63;;;10.43;;
68284;SDS011;55114;52.052;5.238;2023-04-29T04:53:58;26.35;;;10.82;;
68284;SDS011;55114;52.052;5.238;2023-04-29T04:56:25;21.55;;;10.13;;
68284;SDS011;55114;52.052;5.238;2023-04-29T04:58:53;24.55;;;10.00;;
68284;SDS011;55114;52.052;5.238;2023-04-29T05:01:20;21.50;;;10.00;;
68284;SDS011;55114;52.052;5.238;2023-04-29T05:03:47;19.40;;;9.73;;
68284;SDS011;55114;52.052;5.238;2023-04-29T05:06:14;19.42;;;9.45;;
68284;SDS011;55114;52.052;5.238;2023-04-29T05:08:42;21.95;;;9.85;;
68284;SDS011;55114;52.052;5.238;2023-04-29T05:11:14;16.92;;;8.88;;
68284;SDS011;55114;52.052;5.238;2023-04-29T05:13:42;18.02;;;8.85;;
68284;SDS011;55114;52.052;5.238;2023-04-29T05:16:10;18.92;;;8.35;;
68284;SDS011;55114;52.052;5.238;2023-04-29T05:18:38;17.95;;;8.52;;
68284;SDS011;55114;52.052;5.238;2023-04-29T05:21:05;18.48;;;8.52;;
68284;SDS011;55114;52.052;5.238;2023-04-29T05:23:33;17.70;;;7.80;;
68284;SDS011;55114;52.052;5.238;2023-04-29T05:26:00;16.85;;;7.75;;
68284;SDS011;55114;52.052;5.238;2023-04-29T05:28:27;15.73;;;7.70;;
68284;SDS011;55114;52.052;5.238;2023-04-29T05:30:55;18.70;;;8.70;;
68284;SDS011;55114;52.052;5.238;2023-04-29T05:33:22;17.05;;;7.55;;
68284;SDS011;55114;52.052;5.238;2023-04-29T05:35:49;15.10;;;7.63;;
68284;SDS011;55114;52.052;5.238;2023-04-29T05:38:17;14.05;;;7.00;;
68284;SDS011;55114;52.052;5.238;2023-04-29T05:40:44;15.13;;;7.47;;
68284;SDS011;55114;52.052;5.238;2023-04-29T05:43:11;14.05;;;7.28;;
68284;SDS011;55114;52.052;5.238;2023-04-29T05:45:39;12.48;;;7.18;;
68284;SDS011;55114;52.052;5.238;2023-04-29T05:48:06;12.60;;;7.22;;
68284;SDS011;55114;52.052;5.238;2023-04-29T05:50:33;13.95;;;7.50;;
68284;SDS011;55114;52.052;5.238;2023-04-29T05:53:01;12.18;;;6.70;;
68284;SDS011;55114;52.052;5.238;2023-04-29T05:55:29;13.77;;;7.45;;
68284;SDS011;55114;52.052;5.238;2023-04-29T05:57:57;15.18;;;7.50;;
68284;SDS011;55114;52.052;5.238;2023-04-29T06:00:24;16.02;;;7.35;;
68284;SDS011;55114;52.052;5.238;2023-04-29T06:02:51;16.95;;;8.20;;
68284;SDS011;55114;52.052;5.238;2023-04-29T06:05:24;18.92;;;8.13;;
68284;SDS011;55114;52.052;5.238;2023-04-29T06:07:53;19.73;;;9.30;;
68284;SDS011;55114;52.052;5.238;2023-04-29T06:10:20;21.90;;;9.85;;
68284;SDS011;55114;52.052;5.238;2023-04-29T06:12:47;22.60;;;10.00;;
68284;SDS011;55114;52.052;5.238;2023-04-29T06:15:16;22.70;;;10.20;;
68284;SDS011;55114;52.052;5.238;2023-04-29T06:17:45;20.43;;;10.40;;
68284;SDS011;55114;52.052;5.238;2023-04-29T06:20:12;22.05;;;10.40;;
68284;SDS011;55114;52.052;5.238;2023-04-29T06:22:41;21.20;;;9.80;;
68284;SDS011;55114;52.052;5.238;2023-04-29T06:25:08;19.20;;;9.23;;
68284;SDS011;55114;52.052;5.238;2023-04-29T06:27:36;21.20;;;9.60;;
68284;SDS011;55114;52.052;5.238;2023-04-29T06:30:03;20.37;;;9.27;;
68284;SDS011;55114;52.052;5.238;2023-04-29T06:32:30;17.92;;;8.73;;
68284;SDS011;55114;52.052;5.238;2023-04-29T06:34:58;18.65;;;9.07;;
68284;SDS011;55114;52.052;5.238;2023-04-29T06:37:26;17.90;;;8.75;;
68284;SDS011;55114;52.052;5.238;2023-04-29T06:39:54;20.98;;;9.65;;
68284;SDS011;55114;52.052;5.238;2023-04-29T06:42:21;16.73;;;8.07;;
68284;SDS011;55114;52.052;5.238;2023-04-29T06:44:48;18.73;;;8.70;;
68284;SDS011;55114;52.052;5.238;2023-04-29T06:47:16;18.58;;;8.35;;
68284;SDS011;55114;52.052;5.238;2023-04-29T06:49:43;19.60;;;8.70;;
68284;SDS011;55114;52.052;5.238;2023-04-29T06:52:10;19.20;;;8.52;;
68284;SDS011;55114;52.052;5.238;2023-04-29T06:54:38;19.33;;;8.70;;
68284;SDS011;55114;52.052;5.238;2023-04-29T06:57:05;16.80;;;7.68;;
68284;SDS011;55114;52.052;5.238;2023-04-29T06:59:32;20.73;;;8.07;;
68284;SDS011;55114;52.052;5.238;2023-04-29T07:01:59;17.60;;;8.13;;
68284;SDS011;55114;52.052;5.238;2023-04-29T07:04:27;17.10;;;8.00;;
68284;SDS011;55114;52.052;5.238;2023-04-29T07:06:54;15.87;;;7.93;;
68284;SDS011;55114;52.052;5.238;2023-04-29T07:09:21;15.40;;;7.55;;
68284;SDS011;55114;52.052;5.238;2023-04-29T07:11:52;15.75;;;8.02;;
68284;SDS011;55114;52.052;5.238;2023-04-29T07:14:19;17.83;;;8.48;;
68284;SDS011;55114;52.052;5.238;2023-04-29T07:16:54;15.57;;;7.65;;
68284;SDS011;55114;52.052;5.238;2023-04-29T07:19:22;15.43;;;7.47;;
68284;SDS011;55114;52.052;5.238;2023-04-29T07:21:49;17.23;;;8.20;;
68284;SDS011;55114;52.052;5.238;2023-04-29T07:24:16;14.57;;;7.13;;
68284;SDS011;55114;52.052;5.238;2023-04-29T07:26:44;16.25;;;7.72;;
68284;SDS011;55114;52.052;5.238;2023-04-29T07:29:11;15.75;;;8.02;;
68284;SDS011;55114;52.052;5.238;2023-04-29T07:31:38;14.77;;;6.80;;
68284;SDS011;55114;52.052;5.238;2023-04-29T07:34:06;15.98;;;6.97;;
68284;SDS011;55114;52.052;5.238;2023-04-29T07:36:33;17.55;;;7.50;;
68284;SDS011;55114;52.052;5.238;2023-04-29T07:39:00;17.48;;;7.53;;
68284;SDS011;55114;52.052;5.238;2023-04-29T07:41:28;14.93;;;6.72;;
68284;SDS011;55114;52.052;5.238;2023-04-29T07:43:55;15.07;;;6.93;;
68284;SDS011;55114;52.052;5.238;2023-04-29T07:46:22;15.27;;;7.00;;
68284;SDS011;55114;52.052;5.238;2023-04-29T07:48:49;14.77;;;7.07;;
68284;SDS011;55114;52.052;5.238;2023-04-29T07:51:18;16.85;;;7.28;;
68284;SDS011;55114;52.052;5.238;2023-04-29T07:53:45;15.30;;;7.25;;
68284;SDS011;55114;52.052;5.238;2023-04-29T07:56:13;13.13;;;6.30;;
68284;SDS011;55114;52.052;5.238;2023-04-29T07:58:40;15.93;;;6.95;;
68284;SDS011;55114;52.052;5.238;2023-04-29T08:01:08;13.80;;;6.43;;
68284;SDS011;55114;52.052;5.238;2023-04-29T08:03:35;13.90;;;6.03;;
68284;SDS011;55114;52.052;5.238;2023-04-29T08:06:06;12.90;;;5.55;;
68284;SDS011;55114;52.052;5.238;2023-04-29T08:08:34;11.47;;;5.60;;
68284;SDS011;55114;52.052;5.238;2023-04-29T08:11:01;12.80;;;6.03;;
68284;SDS011;55114;52.052;5.238;2023-04-29T08:13:29;12.57;;;6.30;;
68284;SDS011;55114;52.052;5.238;2023-04-29T08:15:57;9.68;;;5.13;;
68284;SDS011;55114;52.052;5.238;2023-04-29T08:18:24;11.77;;;5.15;;
68284;SDS011;55114;52.052;5.238;2023-04-29T08:20:51;9.60;;;5.00;;
68284;SDS011;55114;52.052;5.238;2023-04-29T08:23:19;11.25;;;5.50;;
68284;SDS011;55114;52.052;5.238;2023-04-29T08:25:46;11.73;;;5.55;;
68284;SDS011;55114;52.052;5.238;2023-04-29T08:28:17;12.82;;;5.60;;
68284;SDS011;55114;52.052;5.238;2023-04-29T08:30:44;12.93;;;6.32;;
68284;SDS011;55114;52.052;5.238;2023-04-29T08:33:12;13.67;;;5.97;;
68284;SDS011;55114;52.052;5.238;2023-04-29T08:35:40;12.15;;;5.38;;
68284;SDS011;55114;52.052;5.238;2023-04-29T08:38:07;10.70;;;5.60;;
68284;SDS011;55114;52.052;5.238;2023-04-29T08:40:35;12.05;;;5.95;;
68284;SDS011;55114;52.052;5.238;2023-04-29T08:43:08;14.27;;;6.18;;
68284;SDS011;55114;52.052;5.238;2023-04-29T08:45:35;11.20;;;5.03;;
68284;SDS011;55114;52.052;5.238;2023-04-29T08:48:08;10.20;;;5.60;;
68284;SDS011;55114;52.052;5.238;2023-04-29T08:50:36;9.45;;;4.85;;
68284;SDS011;55114;52.052;5.238;2023-04-29T08:53:07;11.18;;;5.00;;
68284;SDS011;55114;52.052;5.238;2023-04-29T08:55:34;9.05;;;4.78;;
68284;SDS011;55114;52.052;5.238;2023-04-29T08:58:02;13.10;;;5.70;;
68284;SDS011;55114;52.052;5.238;2023-04-29T09:00:31;13.15;;;6.05;;
68284;SDS011;55114;52.052;5.238;2023-04-29T09:02:59;13.52;;;6.13;;
68284;SDS011;55114;52.052;5.238;2023-04-29T09:05:27;14.52;;;6.40;;
68284;SDS011;55114;52.052;5.238;2023-04-29T09:07:55;13.15;;;6.28;;
68284;SDS011;55114;52.052;5.238;2023-04-29T09:10:25;10.67;;;5.57;;
68284;SDS011;55114;52.052;5.238;2023-04-29T09:12:55;11.30;;;5.25;;
68284;SDS011;55114;52.052;5.238;2023-04-29T09:15:23;9.30;;;4.68;;
68284;SDS011;55114;52.052;5.238;2023-04-29T09:17:50;9.82;;;5.20;;
68284;SDS011;55114;52.052;5.238;2023-04-29T09:22:49;11.47;;;5.20;;
68284;SDS011;55114;52.052;5.238;2023-04-29T09:25:17;10.98;;;4.63;;
68284;SDS011;55114;52.052;5.238;2023-04-29T09:27:45;10.90;;;4.90;;
68284;SDS011;55114;52.052;5.238;2023-04-29T09:30:12;9.82;;;4.90;;
68284;SDS011;55114;52.052;5.238;2023-04-29T09:32:41;9.98;;;4.65;;
68284;SDS011;55114;52.052;5.238;2023-04-29T09:35:26;9.37;;;4.00;;
68284;SDS011;55114;52.052;5.238;2023-04-29T09:37:54;7.47;;;4.00;;
68284;SDS011;55114;52.052;5.238;2023-04-29T09:40:33;8.00;;;4.07;;
68284;SDS011;55114;52.052;5.238;2023-04-29T09:43:22;8.45;;;3.83;;
68284;SDS011;55114;52.052;5.238;2023-04-29T09:45:49;8.77;;;3.70;;
68284;SDS011;55114;52.052;5.238;2023-04-29T09:48:16;10.80;;;4.80;;
68284;SDS011;55114;52.052;5.238;2023-04-29T09:50:44;8.98;;;4.13;;
68284;SDS011;55114;52.052;5.238;2023-04-29T09:53:28;8.25;;;3.88;;
68284;SDS011;55114;52.052;5.238;2023-04-29T09:55:57;8.20;;;3.55;;
68284;SDS011;55114;52.052;5.238;2023-04-29T09:58:29;6.25;;;3.38;;
68284;SDS011;55114;52.052;5.238;2023-04-29T10:00:59;7.00;;;3.47;;
68284;SDS011;55114;52.052;5.238;2023-04-29T10:03:28;8.27;;;3.70;;
68284;SDS011;55114;52.052;5.238;2023-04-29T10:05:59;7.70;;;4.13;;
68284;SDS011;55114;52.052;5.238;2023-04-29T10:08:28;7.35;;;3.67;;
68284;SDS011;55114;52.052;5.238;2023-04-29T10:10:59;10.55;;;4.10;;
68284;SDS011;55114;52.052;5.238;2023-04-29T10:13:27;5.73;;;3.27;;
68284;SDS011;55114;52.052;5.238;2023-04-29T10:18:44;7.95;;;3.83;;
68284;SDS011;55114;52.052;5.238;2023-04-29T10:21:14;8.35;;;3.65;;
68284;SDS011;55114;52.052;5.238;2023-04-29T10:23:43;7.25;;;3.60;;
68284;SDS011;55114;52.052;5.238;2023-04-29T10:26:11;7.97;;;3.73;;
68284;SDS011;55114;52.052;5.238;2023-04-29T10:28:40;5.93;;;3.08;;
68284;SDS011;55114;52.052;5.238;2023-04-29T10:31:08;6.30;;;3.60;;
68284;SDS011;55114;52.052;5.238;2023-04-29T10:33:39;8.35;;;4.28;;
68284;SDS011;55114;52.052;5.238;2023-04-29T10:36:08;8.15;;;4.10;;
68284;SDS011;55114;52.052;5.238;2023-04-29T10:38:39;6.90;;;3.47;;
68284;SDS011;55114;52.052;5.238;2023-04-29T10:41:14;7.40;;;3.28;;
68284;SDS011;55114;52.052;5.238;2023-04-29T10:43:42;6.82;;;2.95;;
68284;SDS011;55114;52.052;5.238;2023-04-29T10:46:17;7.35;;;3.70;;
68284;SDS011;55114;52.052;5.238;2023-04-29T10:48:46;7.00;;;3.20;;
68284;SDS011;55114;52.052;5.238;2023-04-29T10:51:48;5.60;;;2.83;;
68284;SDS011;55114;52.052;5.238;2023-04-29T10:54:11;7.28;;;2.70;;
68284;SDS011;55114;52.052;5.238;2023-04-29T10:56:40;6.70;;;3.60;;
68284;SDS011;55114;52.052;5.238;2023-04-29T10:59:08;6.13;;;3.15;;
68284;SDS011;55114;52.052;5.238;2023-04-29T11:01:46;6.63;;;3.45;;
68284;SDS011;55114;52.052;5.238;2023-04-29T11:04:15;5.73;;;3.30;;
68284;SDS011;55114;52.052;5.238;2023-04-29T11:06:43;6.05;;;3.10;;
68284;SDS011;55114;52.052;5.238;2023-04-29T11:09:13;6.18;;;3.05;;
68284;SDS011;55114;52.052;5.238;2023-04-29T11:14:09;6.95;;;3.40;;
68284;SDS011;55114;52.052;5.238;2023-04-29T11:16:37;6.43;;;3.33;;
68284;SDS011;55114;52.052;5.238;2023-04-29T11:19:06;6.65;;;3.38;;
68284;SDS011;55114;52.052;5.238;2023-04-29T11:21:34;5.30;;;2.80;;
68284;SDS011;55114;52.052;5.238;2023-04-29T11:24:02;5.38;;;2.67;;
68284;SDS011;55114;52.052;5.238;2023-04-29T11:26:34;5.72;;;2.80;;
68284;SDS011;55114;52.052;5.238;2023-04-29T11:29:03;5.03;;;3.00;;
68284;SDS011;55114;52.052;5.238;2023-04-29T11:31:31;6.28;;;2.60;;
68284;SDS011;55114;52.052;5.238;2023-04-29T11:33:59;5.45;;;2.80;;
68284;SDS011;55114;52.052;5.238;2023-04-29T11:36:26;5.32;;;2.88;;
68284;SDS011;55114;52.052;5.238;2023-04-29T11:38:54;4.82;;;2.80;;
68284;SDS011;55114;52.052;5.238;2023-04-29T11:41:21;4.80;;;2.50;;
68284;SDS011;55114;52.052;5.238;2023-04-29T11:43:55;4.55;;;2.67;;
68284;SDS011;55114;52.052;5.238;2023-04-29T11:46:23;4.63;;;2.50;;
68284;SDS011;55114;52.052;5.238;2023-04-29T11:48:50;5.18;;;2.40;;
68284;SDS011;55114;52.052;5.238;2023-04-29T11:51:18;4.00;;;2.67;;
68284;SDS011;55114;52.052;5.238;2023-04-29T11:53:45;5.63;;;2.60;;
68284;SDS011;55114;52.052;5.238;2023-04-29T11:56:13;5.65;;;3.00;;
68284;SDS011;55114;52.052;5.238;2023-04-29T11:58:40;4.90;;;2.55;;
68284;SDS011;55114;52.052;5.238;2023-04-29T12:01:08;5.10;;;2.70;;
68284;SDS011;55114;52.052;5.238;2023-04-29T12:03:36;5.00;;;2.78;;
68284;SDS011;55114;52.052;5.238;2023-04-29T12:06:04;4.90;;;2.30;;
68284;SDS011;55114;52.052;5.238;2023-04-29T12:08:33;5.43;;;2.47;;
68284;SDS011;55114;52.052;5.238;2023-04-29T12:11:00;3.83;;;2.17;;
68284;SDS011;55114;52.052;5.238;2023-04-29T12:13:29;3.75;;;2.03;;
68284;SDS011;55114;52.052;5.238;2023-04-29T12:15:57;5.05;;;2.28;;
68284;SDS011;55114;52.052;5.238;2023-04-29T12:18:24;4.07;;;1.97;;
68284;SDS011;55114;52.052;5.238;2023-04-29T12:20:53;4.07;;;2.30;;
68284;SDS011;55114;52.052;5.238;2023-04-29T12:23:24;4.00;;;2.17;;
68284;SDS011;55114;52.052;5.238;2023-04-29T12:25:53;4.40;;;2.50;;
68284;SDS011;55114;52.052;5.238;2023-04-29T12:28:21;4.63;;;2.30;;
68284;SDS011;55114;52.052;5.238;2023-04-29T12:30:50;4.53;;;2.80;;
68284;SDS011;55114;52.052;5.238;2023-04-29T12:33:26;4.53;;;2.65;;
68284;SDS011;55114;52.052;5.238;2023-04-29T12:35:55;5.50;;;2.95;;
68284;SDS011;55114;52.052;5.238;2023-04-29T12:38:23;4.57;;;2.30;;
68284;SDS011;55114;52.052;5.238;2023-04-29T12:40:54;4.95;;;2.17;;
68284;SDS011;55114;52.052;5.238;2023-04-29T12:43:28;4.07;;;2.20;;
68284;SDS011;55114;52.052;5.238;2023-04-29T12:46:02;4.00;;;2.45;;
68284;SDS011;55114;52.052;5.238;2023-04-29T12:48:34;4.60;;;2.40;;
68284;SDS011;55114;52.052;5.238;2023-04-29T12:51:07;4.20;;;2.42;;
68284;SDS011;55114;52.052;5.238;2023-04-29T12:53:37;5.05;;;2.78;;
68284;SDS011;55114;52.052;5.238;2023-04-29T12:56:05;7.17;;;3.00;;
68284;SDS011;55114;52.052;5.238;2023-04-29T12:58:32;5.65;;;2.70;;
68284;SDS011;55114;52.052;5.238;2023-04-29T13:01:00;5.50;;;2.40;;
68284;SDS011;55114;52.052;5.238;2023-04-29T13:03:27;5.15;;;2.30;;
68284;SDS011;55114;52.052;5.238;2023-04-29T13:05:55;6.40;;;2.60;;
68284;SDS011;55114;52.052;5.238;2023-04-29T13:08:23;7.63;;;3.10;;
68284;SDS011;55114;52.052;5.238;2023-04-29T13:10:50;6.00;;;2.95;;
68284;SDS011;55114;52.052;5.238;2023-04-29T13:13:19;5.70;;;2.75;;
68284;SDS011;55114;52.052;5.238;2023-04-29T13:15:46;7.57;;;3.00;;
68284;SDS011;55114;52.052;5.238;2023-04-29T13:18:14;6.80;;;2.80;;
68284;SDS011;55114;52.052;5.238;2023-04-29T13:20:41;6.60;;;2.73;;
68284;SDS011;55114;52.052;5.238;2023-04-29T13:23:09;4.97;;;2.70;;
68284;SDS011;55114;52.052;5.238;2023-04-29T13:25:37;5.50;;;2.40;;
68284;SDS011;55114;52.052;5.238;2023-04-29T13:28:05;6.07;;;2.30;;
68284;SDS011;55114;52.052;5.238;2023-04-29T13:30:33;5.93;;;2.63;;
68284;SDS011;55114;52.052;5.238;2023-04-29T13:33:00;5.10;;;2.60;;
68284;SDS011;55114;52.052;5.238;2023-04-29T13:35:37;4.25;;;2.25;;
68284;SDS011;55114;52.052;5.238;2023-04-29T13:38:06;3.90;;;2.05;;
68284;SDS011;55114;52.052;5.238;2023-04-29T13:40:33;3.97;;;1.95;;
68284;SDS011;55114;52.052;5.238;2023-04-29T13:43:09;4.60;;;2.40;;
68284;SDS011;55114;52.052;5.238;2023-04-29T13:45:43;4.20;;;2.37;;
68284;SDS011;55114;52.052;5.238;2023-04-29T13:48:13;4.90;;;2.30;;
68284;SDS011;55114;52.052;5.238;2023-04-29T13:50:57;4.68;;;2.05;;
68284;SDS011;55114;52.052;5.238;2023-04-29T13:53:27;5.20;;;1.70;;
68284;SDS011;55114;52.052;5.238;2023-04-29T13:55:58;5.03;;;2.33;;
68284;SDS011;55114;52.052;5.238;2023-04-29T13:58:28;4.17;;;2.30;;
68284;SDS011;55114;52.052;5.238;2023-04-29T14:01:16;5.38;;;2.55;;
68284;SDS011;55114;52.052;5.238;2023-04-29T14:04:03;6.35;;;2.58;;
68284;SDS011;55114;52.052;5.238;2023-04-29T14:06:30;5.65;;;2.55;;
68284;SDS011;55114;52.052;5.238;2023-04-29T14:08:59;6.43;;;3.42;;
68284;SDS011;55114;52.052;5.238;2023-04-29T14:11:29;6.40;;;3.00;;
68284;SDS011;55114;52.052;5.238;2023-04-29T14:14:02;5.18;;;3.00;;
68284;SDS011;55114;52.052;5.238;2023-04-29T14:16:32;7.05;;;2.70;;
68284;SDS011;55114;52.052;5.238;2023-04-29T14:18:59;4.63;;;2.35;;
68284;SDS011;55114;52.052;5.238;2023-04-29T14:21:29;4.40;;;2.30;;
68284;SDS011;55114;52.052;5.238;2023-04-29T14:23:59;4.57;;;2.30;;
68284;SDS011;55114;52.052;5.238;2023-04-29T14:26:28;4.63;;;2.40;;
68284;SDS011;55114;52.052;5.238;2023-04-29T14:28:56;5.90;;;2.30;;
68284;SDS011;55114;52.052;5.238;2023-04-29T14:31:25;4.20;;;2.60;;
68284;SDS011;55114;52.052;5.238;2023-04-29T14:33:54;4.45;;;2.30;;
68284;SDS011;55114;52.052;5.238;2023-04-29T14:36:21;5.50;;;2.40;;
68284;SDS011;55114;52.052;5.238;2023-04-29T14:38:50;6.78;;;2.45;;
68284;SDS011;55114;52.052;5.238;2023-04-29T14:41:17;6.53;;;2.85;;
68284;SDS011;55114;52.052;5.238;2023-04-29T14:43:47;5.95;;;2.65;;
68284;SDS011;55114;52.052;5.238;2023-04-29T14:46:15;5.45;;;2.60;;
68284;SDS011;55114;52.052;5.238;2023-04-29T14:48:44;5.83;;;3.00;;
68284;SDS011;55114;52.052;5.238;2023-04-29T14:51:12;6.65;;;2.72;;
68284;SDS011;55114;52.052;5.238;2023-04-29T14:53:39;4.82;;;2.60;;
68284;SDS011;55114;52.052;5.238;2023-04-29T14:56:07;4.80;;;2.47;;
68284;SDS011;55114;52.052;5.238;2023-04-29T14:58:34;6.30;;;2.90;;
68284;SDS011;55114;52.052;5.238;2023-04-29T15:01:01;5.83;;;2.50;;
68284;SDS011;55114;52.052;5.238;2023-04-29T15:03:29;5.65;;;2.70;;
68284;SDS011;55114;52.052;5.238;2023-04-29T15:05:58;5.35;;;2.53;;